Time;durP1;ratioP1;P1;durP2;ratioP2;P2;SDS_P1;SDS_P2;PMS_P1;PMS_P2;Temp;Humidity;BMP_temperature;BMP_pressure;BME280_temperature;BME280_humidity;BME280_pressure;Samples;Min_cycle;Max_cycle;Signal;HPM_P1;HPM_P2
2021/10/05 00:02:35;;;;;;;12.27;11.07;;;;;;;11.85;100.00;100798.66;21053343;28;20735;-60
2021/10/05 00:12:39;;;;;;;11.93;10.77;;;;;;;11.77;100.00;100800.94;21088161;27;20410;-60
2021/10/05 00:22:42;;;;;;;13.50;11.27;;;;;;;11.60;100.00;100761.84;21134296;27;21054;-63
2021/10/05 00:32:46;;;;;;;11.77;10.67;;;;;;;11.71;100.00;100791.44;21135814;27;20255;-60
2021/10/05 00:42:48;;;;;;;11.80;10.60;;;;;;;11.59;100.00;100800.25;21141384;27;20232;-60
2021/10/05 00:52:52;;;;;;;11.20;10.07;;;;;;;11.47;100.00;100793.78;21118003;27;20597;-60
2021/10/05 01:02:54;;;;;;;12.13;10.93;;;;;;;11.36;100.00;100784.69;21097418;28;20317;-60
2021/10/05 01:12:58;;;;;;;12.93;11.10;;;;;;;11.29;100.00;100786.03;21036907;28;20229;-61
2021/10/05 01:23:02;;;;;;;11.60;10.50;;;;;;;11.23;100.00;100781.06;21058681;28;20233;-60
2021/10/05 01:33:04;;;;;;;11.77;10.57;;;;;;;11.16;100.00;100781.41;21087236;27;20228;-60
2021/10/05 01:43:08;;;;;;;11.57;10.43;;;;;;;11.12;100.00;100768.31;21139819;27;20229;-60
2021/10/05 01:53:10;;;;;;;11.50;10.40;;;;;;;11.11;100.00;100772.81;21128530;27;20784;-62
2021/10/05 02:03:14;;;;;;;13.03;11.10;;;;;;;11.32;100.00;100769.81;21130904;27;20249;-61
2021/10/05 02:13:17;;;;;;;11.90;10.50;;;;;;;11.62;100.00;100773.28;21142099;27;20248;-62
2021/10/05 02:23:20;;;;;;;11.00;9.90;;;;;;;11.81;100.00;100773.06;21103334;27;20226;-60
2021/10/05 02:33:23;;;;;;;10.03;9.10;;;;;;;11.83;100.00;100774.66;21085123;28;20217;-60
2021/10/05 02:43:26;;;;;;;13.03;11.37;;;;;;;11.55;100.00;100774.63;21131979;27;20301;-60
2021/10/05 02:53:29;;;;;;;12.47;11.17;;;;;;;11.18;100.00;100771.50;21097298;28;20308;-60
2021/10/05 03:03:32;;;;;;;12.80;11.50;;;;;;;10.94;100.00;100764.09;21070761;27;20848;-61
2021/10/05 03:13:35;;;;;;;13.03;11.60;;;;;;;10.78;100.00;100761.44;21097553;28;20717;-60
2021/10/05 03:23:39;;;;;;;12.07;10.87;;;;;;;10.64;100.00;100761.38;21051045;28;20229;-60
2021/10/05 03:33:43;;;;;;;14.63;12.50;;;;;;;10.56;100.00;100756.47;21059526;28;20651;-60
2021/10/05 03:43:47;;;;;;;13.37;11.17;;;;;;;10.52;100.00;100751.41;21057700;28;20222;-60
2021/10/05 03:53:49;;;;;;;12.13;10.10;;;;;;;10.44;100.00;100750.03;21051144;28;20218;-61
2021/10/05 04:03:53;;;;;;;12.23;10.97;;;;;;;10.44;100.00;100744.72;21064105;28;20252;-59
2021/10/05 04:13:55;;;;;;;14.50;10.70;;;;;;;10.40;100.00;100743.16;21040407;28;20222;-60
2021/10/05 04:23:59;;;;;;;12.30;10.27;;;;;;;10.32;100.00;100740.06;21062164;28;20237;-60
2021/10/05 04:34:01;;;;;;;11.83;10.53;;;;;;;10.29;100.00;100732.22;21038484;28;20229;-64
2021/10/05 04:44:05;;;;;;;11.37;10.27;;;;;;;10.29;100.00;100737.56;21091438;27;20281;-59
2021/10/05 04:54:07;;;;;;;11.80;9.67;;;;;;;10.54;100.00;100745.03;21113853;27;20225;-62
2021/10/05 05:04:11;;;;;;;10.43;9.43;;;;;;;11.00;100.00;100737.00;21138910;27;20697;-60
2021/10/05 05:14:14;;;;;;;10.17;9.27;;;;;;;11.27;100.00;100734.50;21120735;27;20213;-61
2021/10/05 05:24:18;;;;;;;9.30;8.40;;;;;;;11.55;100.00;100734.53;21123311;27;20244;-61
2021/10/05 05:34:21;;;;;;;9.37;8.37;;;;;;;11.76;100.00;100738.59;21137232;27;20253;-59
2021/10/05 05:44:26;;;;;;;8.67;7.87;;;;;;;12.00;100.00;100740.66;21125453;27;20589;-59
2021/10/05 05:54:28;;;;;;;8.67;7.73;;;;;;;12.30;100.00;100749.44;21157600;27;20217;-58
2021/10/05 06:14:32;;;;;;;9.73;7.90;;;;;;;12.66;100.00;100745.31;21134168;27;20562;-59
2021/10/05 06:24:35;;;;;;;10.43;7.60;;;;;;;13.00;100.00;100734.03;21027087;28;20729;-59
2021/10/05 06:34:38;;;;;;;9.83;6.63;;;;;;;13.26;100.00;100727.81;21046100;28;20223;-64
2021/10/05 06:44:41;;;;;;;9.10;7.47;;;;;;;13.23;100.00;100719.09;21056605;27;20290;-59
2021/10/05 06:54:45;;;;;;;8.67;7.87;;;;;;;13.24;100.00;100737.75;21014494;28;20231;-59
2021/10/05 07:04:48;;;;;;;8.23;7.40;;;;;;;13.52;100.00;100712.59;21040711;28;20686;-60
2021/10/05 07:14:52;;;;;;;9.10;7.33;;;;;;;14.53;100.00;100724.09;21021740;28;20232;-64
2021/10/05 07:24:54;;;;;;;9.17;6.73;;;;;;;15.77;100.00;100729.75;21026038;28;20229;-59
2021/10/05 07:34:58;;;;;;;7.10;6.40;;;;;;;16.29;100.00;100704.00;21046556;28;20240;-63
2021/10/05 07:45:01;;;;;;;9.67;7.10;;;;;;;16.67;100.00;100720.56;21068160;28;20265;-59
2021/10/05 07:55:05;;;;;;;8.80;6.90;;;;;;;16.11;100.00;100723.38;21045830;28;20595;-60
2021/10/05 08:05:09;;;;;;;9.17;8.07;;;;;;;15.75;100.00;100702.09;21063233;28;20262;-59
2021/10/05 08:15:12;;;;;;;10.70;7.60;;;;;;;15.61;100.00;100705.00;21053237;28;20598;-59
2021/10/05 08:25:16;;;;;;;7.80;7.03;;;;;;;15.76;100.00;100701.13;21059246;28;20315;-59
2021/10/05 08:35:20;;;;;;;7.57;6.80;;;;;;;16.05;100.00;100702.34;21075095;28;20224;-59
2021/10/05 08:45:23;;;;;;;9.00;6.80;;;;;;;16.42;100.00;100694.75;21075180;28;20230;-61
2021/10/05 08:55:27;;;;;;;7.17;6.53;;;;;;;16.69;100.00;100691.66;21067282;28;20217;-59
2021/10/05 09:05:29;;;;;;;7.30;6.60;;;;;;;17.05;100.00;100679.59;21055983;28;20261;-62
2021/10/05 09:15:33;;;;;;;8.60;7.20;;;;;;;17.18;100.00;100660.50;21004561;28;20297;-59
2021/10/05 09:25:37;;;;;;;7.67;6.63;;;;;;;17.41;100.00;100648.56;20987244;28;20234;-60
2021/10/05 09:35:47;;;;;;;7.90;7.10;;;;;;;17.73;100.00;100642.25;20983816;28;20624;-59
2021/10/05 09:45:50;;;;;;;9.50;6.57;;;;;;;18.17;100.00;100644.47;20975662;28;20238;-63
2021/10/05 09:55:54;;;;;;;8.63;6.90;;;;;;;18.34;100.00;100624.03;20953831;28;20341;-66
2021/10/05 10:05:58;;;;;;;7.13;6.43;;;;;;;18.60;100.00;100637.84;20973738;28;20231;-60
2021/10/05 10:16:03;;;;;;;9.77;6.23;;;;;;;19.21;100.00;100629.38;20970321;28;20225;-64
2021/10/05 10:26:08;;;;;;;8.53;6.40;;;;;;;20.33;100.00;100637.28;20964511;28;20226;-61
2021/10/05 10:36:12;;;;;;;7.70;6.10;;;;;;;20.65;100.00;100647.63;20989984;28;20259;-64
2021/10/05 10:46:24;;;;;;;6.90;6.30;;;;;;;20.29;100.00;100619.63;21040719;28;20226;-63
2021/10/05 10:56:33;;;;;;;8.53;7.00;;;;;;;19.80;100.00;100622.81;21064485;28;20313;-66
2021/10/05 11:06:36;;;;;;;12.57;7.40;;;;;;;19.65;100.00;100563.72;21047896;28;20233;-63
2021/10/05 11:16:41;;;;;;;9.53;7.47;;;;;;;19.65;100.00;100585.38;21069612;28;20226;-63
2021/10/05 11:26:46;;;;;;;14.17;7.70;;;;;;;19.77;100.00;100543.56;21045455;28;20637;-62
2021/10/05 11:36:51;;;;;;;8.33;7.40;;;;;;;19.78;100.00;100547.97;21068957;28;20225;-61
2021/10/05 11:46:59;;;;;;;8.50;6.70;;;;;;;20.06;100.00;100539.78;21048410;28;20317;-63
2021/10/05 11:57:09;;;;;;;11.27;6.90;;;;;;;20.08;100.00;100526.94;21059858;28;20230;-66
2021/10/05 12:07:13;;;;;;;9.60;7.13;;;;;;;20.12;100.00;100503.97;21055850;28;20221;-61
2021/10/05 12:17:18;;;;;;;12.90;6.83;;;;;;;20.23;100.00;100517.25;21060601;28;20642;-58
2021/10/05 12:27:22;;;;;;;14.27;7.10;;;;;;;20.28;100.00;100501.41;21064542;28;20814;-59
2021/10/05 12:37:31;;;;;;;9.10;6.07;;;;;;;20.37;100.00;100505.06;21040971;28;20299;-59
2021/10/05 12:47:33;;;;;;;9.23;6.10;;;;;;;20.46;100.00;100504.94;21061834;28;20226;-60
2021/10/05 12:57:37;;;;;;;11.57;6.80;;;;;;;20.45;100.00;100491.56;21040678;28;20230;-57
2021/10/05 13:07:39;;;;;;;9.07;6.70;;;;;;;20.40;100.00;100475.78;21062482;28;20234;-58
2021/10/05 13:17:45;;;;;;;12.40;6.80;;;;;;;20.36;96.84;100444.56;21042541;28;20738;-59
2021/10/05 13:27:47;;;;;;;6.80;6.10;;;;;;;20.35;100.00;100431.13;21055203;28;20226;-62
2021/10/05 13:37:52;;;;;;;9.10;6.30;;;;;;;20.39;100.00;100460.53;21048319;28;20226;-59
2021/10/05 13:47:54;;;;;;;15.53;6.70;;;;;;;20.38;100.00;100417.31;21048389;28;20343;-60
2021/10/05 13:57:58;;;;;;;6.90;5.80;;;;;;;20.37;100.00;100446.28;21070215;28;20222;-59
2021/10/05 14:08:01;;;;;;;9.37;5.90;;;;;;;20.36;100.00;100439.16;21036236;28;20287;-59
2021/10/05 14:18:06;;;;;;;8.67;6.20;;;;;;;20.28;100.00;100430.09;21051826;28;20340;-58
2021/10/05 14:28:08;;;;;;;6.40;5.77;;;;;;;20.16;100.00;100443.03;21034340;28;20233;-57
2021/10/05 14:38:13;;;;;;;7.57;6.23;;;;;;;19.99;100.00;100443.88;21074344;28;20248;-65
2021/10/05 14:48:16;;;;;;;10.37;5.70;;;;;;;19.84;100.00;100421.91;21051650;28;20943;-58
2021/10/05 14:58:20;;;;;;;10.03;5.73;;;;;;;19.64;100.00;100437.47;21068451;28;20877;-68
2021/10/05 15:08:22;;;;;;;5.90;5.30;;;;;;;19.42;100.00;100429.78;21061814;28;20247;-57
2021/10/05 15:18:26;;;;;;;10.07;6.17;;;;;;;19.18;100.00;100429.50;21058377;28;20214;-57
2021/10/05 15:28:28;;;;;;;10.27;6.47;;;;;;;18.88;100.00;100428.78;21063983;28;20226;-61
2021/10/05 15:38:32;;;;;;;10.80;6.17;;;;;;;18.56;100.00;100444.53;21046718;28;20272;-64
2021/10/05 15:48:36;;;;;;;10.97;6.70;;;;;;;18.29;100.00;100411.03;21061267;28;20306;-59
2021/10/05 15:58:40;;;;;;;9.30;6.50;;;;;;;18.00;100.00;100415.59;21078407;28;20229;-57
2021/10/05 16:08:43;;;;;;;9.20;6.70;;;;;;;17.67;100.00;100418.75;21075850;28;20222;-64
2021/10/05 16:18:47;;;;;;;9.63;6.30;;;;;;;17.41;100.00;100437.28;21075760;28;20593;-64
2021/10/05 16:28:50;;;;;;;15.13;7.37;;;;;;;17.21;100.00;100439.09;21043304;28;20319;-60
2021/10/05 16:38:53;;;;;;;7.10;5.97;;;;;;;17.07;100.00;100463.75;20935714;28;20718;-63
2021/10/05 16:48:56;;;;;;;9.87;6.50;;;;;;;16.86;100.00;100467.38;20968442;28;20364;-62
2021/10/05 16:58:59;;;;;;;12.73;6.67;;;;;;;16.67;100.00;100464.56;20927751;28;20821;-59
2021/10/05 17:19:50;;;;;;;11.40;6.33;;;;;;;16.29;100.00;100442.78;20921423;28;20250;-63
2021/10/05 17:29:53;;;;;;;9.93;6.10;;;;;;;16.23;100.00;100443.28;20955971;28;21085;-60
2021/10/05 17:39:57;;;;;;;9.63;6.70;;;;;;;16.12;100.00;100453.16;20960022;28;20988;-61
2021/10/05 17:50:04;;;;;;;8.07;6.10;;;;;;;16.05;100.00;100443.91;20955459;28;20238;-65
2021/10/05 18:00:10;;;;;;;10.40;5.77;;;;;;;15.90;100.00;100434.41;20923474;28;20356;-59
2021/10/05 18:10:16;;;;;;;7.83;6.30;;;;;;;15.82;100.00;100458.41;20954903;28;20264;-63
2021/10/05 18:20:20;;;;;;;10.20;6.10;;;;;;;15.70;100.00;100441.47;20967991;28;20238;-61
2021/10/05 18:30:24;;;;;;;9.83;6.03;;;;;;;15.58;100.00;100460.50;20967847;28;20676;-61
2021/10/05 18:40:28;;;;;;;12.00;6.17;;;;;;;15.52;100.00;100444.81;20963510;28;20315;-58
2021/10/05 18:50:31;;;;;;;6.53;5.40;;;;;;;15.37;100.00;100480.03;20949012;28;20735;-59
2021/10/05 19:00:39;;;;;;;10.30;6.00;;;;;;;15.30;100.00;100473.47;20958496;28;20229;-58
2021/10/05 19:10:43;;;;;;;11.33;6.20;;;;;;;15.19;100.00;100459.19;20991954;28;20334;-61
2021/10/05 19:20:52;;;;;;;11.27;6.90;;;;;;;15.17;100.00;100464.69;20980997;28;20240;-59
2021/10/05 19:30:56;;;;;;;9.30;6.00;;;;;;;15.31;100.00;100471.63;20989160;28;20226;-59
2021/10/05 19:41:00;;;;;;;11.50;6.47;;;;;;;15.29;100.00;100469.06;20968471;28;20246;-63
2021/10/05 19:51:03;;;;;;;10.77;6.30;;;;;;;15.05;100.00;100479.13;20981390;28;20229;-59
2021/10/05 20:01:07;;;;;;;11.00;6.00;;;;;;;14.88;100.00;100461.66;20993663;28;20241;-60
2021/10/05 20:11:09;;;;;;;11.97;6.80;;;;;;;14.86;100.00;100479.72;20979351;28;20233;-61
2021/10/05 20:21:15;;;;;;;9.23;6.20;;;;;;;14.72;100.00;100486.22;20976223;28;20249;-60
2021/10/05 20:31:20;;;;;;;13.67;6.13;;;;;;;14.63;100.00;100483.38;21000833;28;20241;-61
2021/10/05 20:41:26;;;;;;;10.53;6.07;;;;;;;14.80;100.00;100490.09;20988133;28;20219;-60
2021/10/05 20:51:29;;;;;;;10.40;5.93;;;;;;;14.97;100.00;100470.81;20969346;28;20362;-60
2021/10/05 21:01:34;;;;;;;9.93;5.97;;;;;;;15.01;100.00;100480.34;20961069;28;20230;-59
2021/10/05 21:11:39;;;;;;;8.83;5.50;;;;;;;14.93;100.00;100483.63;21003729;28;20724;-60
2021/10/05 21:21:50;;;;;;;7.20;5.33;;;;;;;14.65;100.00;100468.84;20952817;28;20230;-60
2021/10/05 21:31:54;;;;;;;8.27;5.70;;;;;;;14.27;100.00;100465.56;20986583;28;20233;-61
2021/10/05 21:41:59;;;;;;;10.90;5.50;;;;;;;13.97;100.00;100468.78;20978169;28;20254;-61
2021/10/05 21:52:01;;;;;;;8.97;5.50;;;;;;;13.80;100.00;100467.38;20964028;28;20704;-59
2021/10/05 22:02:06;;;;;;;9.90;5.67;;;;;;;13.70;100.00;100490.50;20942000;28;20232;-59
2021/10/05 22:12:08;;;;;;;8.90;5.37;;;;;;;13.56;100.00;100479.94;21004853;28;20623;-66
2021/10/05 22:22:14;;;;;;;10.17;5.23;;;;;;;13.43;100.00;100468.41;20986739;28;20227;-67
2021/10/05 22:32:16;;;;;;;10.10;6.00;;;;;;;13.28;100.00;100487.31;21062390;28;20238;-65
2021/10/05 22:42:20;;;;;;;6.37;5.23;;;;;;;13.12;100.00;100478.66;21067548;28;20280;-65
2021/10/05 22:52:22;;;;;;;7.90;5.70;;;;;;;13.08;100.00;100479.84;21077784;28;20239;-64
2021/10/05 23:02:27;;;;;;;7.83;5.40;;;;;;;12.99;100.00;100492.06;21084814;28;20279;-64
2021/10/05 23:12:29;;;;;;;9.30;5.40;;;;;;;12.91;100.00;100512.34;21079166;28;20858;-64
2021/10/05 23:22:33;;;;;;;10.13;5.67;;;;;;;12.84;100.00;100503.00;21077657;28;20298;-64
2021/10/05 23:32:36;;;;;;;8.90;5.33;;;;;;;12.70;100.00;100497.78;21082264;28;20235;-65
2021/10/05 23:42:39;;;;;;;8.70;5.63;;;;;;;12.60;100.00;100501.09;21081409;28;20313;-64
2021/10/05 23:52:42;;;;;;;10.40;5.63;;;;;;;12.58;100.00;100503.03;21080725;28;20287;-65
